createdAt,value
2023-03-01T00:00:37.574Z,86.8
2023-03-01T00:05:37.629Z,87.1
2023-03-01T00:10:56.152Z,87.5
2023-03-01T00:15:56.133Z,89.5
2023-03-01T00:21:37.547Z,90.1
2023-03-01T00:26:37.582Z,88.7
2023-03-01T00:31:56.165Z,89.9
2023-03-01T00:36:56.127Z,88.9
2023-03-01T00:41:56.118Z,88.5
2023-03-01T00:47:37.583Z,89.9
2023-03-01T00:52:37.676Z,87.6
2023-03-01T00:57:56.119Z,90
2023-03-01T01:03:37.589Z,90.4
2023-03-01T01:08:56.149Z,89.8
2023-03-01T01:14:37.587Z,90.5
2023-03-01T01:19:37.611Z,89.7
2023-03-01T01:24:56.113Z,91
2023-03-01T01:29:56.106Z,88.8
2023-03-01T01:35:37.610Z,93.3
2023-03-01T01:40:37.604Z,93.9
2023-03-01T01:45:56.115Z,90.9
2023-03-01T01:50:56.147Z,91.3
2023-03-01T01:56:37.595Z,91.6
2023-03-01T02:01:37.575Z,94.7
2023-03-01T02:06:56.089Z,96.6
2023-03-01T02:11:56.228Z,98.4
2023-03-01T02:17:37.600Z,96.5
2023-03-01T02:22:56.120Z,97.9
2023-03-01T02:27:56.134Z,95.2
2023-03-01T02:33:37.570Z,97.5
2023-03-01T02:38:37.562Z,98.9
2023-03-01T02:43:37.598Z,100
2023-03-01T02:48:37.573Z,99.2
2023-03-01T02:53:37.580Z,97.7
2023-03-01T02:58:56.138Z,97.8
2023-03-01T03:04:37.613Z,100
2023-03-01T03:09:56.108Z,99.8
2023-03-01T03:15:37.592Z,98.6
2023-03-01T03:20:37.594Z,98.3
2023-03-01T03:25:56.100Z,97.5
2023-03-01T03:31:37.697Z,98
2023-03-01T03:36:56.128Z,98.9
2023-03-01T03:42:37.618Z,100
2023-03-01T03:47:56.119Z,100
2023-03-01T03:52:56.144Z,100
2023-03-01T03:58:37.550Z,98.2
2023-03-01T04:03:37.588Z,99.2
2023-03-01T04:08:37.593Z,98.9
2023-03-01T04:13:56.064Z,100
2023-03-01T04:19:37.593Z,100
2023-03-01T04:24:56.101Z,100
2023-03-01T04:29:56.134Z,100
2023-03-01T04:35:37.729Z,99.3
2023-03-01T04:40:56.063Z,100
2023-03-01T04:45:56.142Z,100
2023-03-01T04:51:37.558Z,100
2023-03-01T04:56:56.088Z,100
2023-03-01T05:01:56.079Z,100
2023-03-01T05:06:56.437Z,100
2023-03-01T05:12:37.561Z,100
2023-03-01T05:17:56.113Z,100
2023-03-01T05:22:56.109Z,100
2023-03-01T05:27:56.104Z,100
2023-03-01T05:33:38.825Z,100
2023-03-01T05:38:37.567Z,100
2023-03-01T05:43:56.081Z,100
2023-03-01T05:49:39.670Z,100
2023-03-01T05:54:37.557Z,100
2023-03-01T05:59:56.105Z,100
2023-03-01T06:05:37.575Z,100
2023-03-01T06:10:56.109Z,100
2023-03-01T06:15:56.122Z,100
2023-03-01T06:20:56.076Z,100
2023-03-01T06:26:37.574Z,100
2023-03-01T06:31:56.069Z,100
2023-03-01T06:36:56.091Z,100
2023-03-01T06:42:37.543Z,100
2023-03-01T06:47:37.548Z,100
2023-03-01T06:52:56.046Z,100
2023-03-01T06:58:37.559Z,100
2023-03-01T07:03:37.584Z,100
2023-03-01T07:08:56.052Z,100
2023-03-01T07:13:56.070Z,100
2023-03-01T07:18:56.059Z,100
2023-03-01T07:24:37.576Z,100
2023-03-01T07:29:56.075Z,100
2023-03-01T07:35:37.537Z,100
2023-03-01T07:40:56.031Z,100
2023-03-01T07:45:56.084Z,100
2023-03-01T07:51:37.531Z,91.1
2023-03-01T07:56:56.059Z,88.8
2023-03-01T08:02:37.537Z,83.7
2023-03-01T08:07:56.027Z,83.8
2023-03-01T08:12:56.053Z,83.6
2023-03-01T08:17:56.087Z,88.2
2023-03-01T08:23:14.877Z,65.1
2023-03-01T08:28:37.541Z,63.9
2023-03-01T08:33:56.069Z,59.3
2023-03-01T08:39:37.517Z,51.6
2023-03-01T08:44:37.538Z,48.1
2023-03-01T08:49:56.050Z,46.1
2023-03-01T08:54:56.053Z,44
2023-03-01T09:00:37.565Z,42.1
2023-03-01T09:05:56.071Z,43.1
2023-03-01T09:11:37.494Z,41
2023-03-01T09:16:37.606Z,38.3
2023-03-01T09:21:40.532Z,39.1
2023-03-01T09:26:56.074Z,39.3
2023-03-01T09:32:37.526Z,41
2023-03-01T09:37:37.576Z,40.7
2023-03-01T09:42:56.030Z,45.6
2023-03-01T09:47:56.070Z,45.8
2023-03-01T09:52:56.105Z,42.2
2023-03-01T09:58:37.465Z,46.5
2023-03-01T10:03:37.625Z,49.5
2023-03-01T10:08:56.090Z,45.6
2023-03-01T10:13:56.094Z,43.8
2023-03-01T10:19:37.610Z,41
2023-03-01T10:24:56.092Z,43.5
2023-03-01T10:29:56.054Z,42.5
2023-03-01T10:35:37.603Z,43
2023-03-01T10:40:56.067Z,40.7
2023-03-01T10:45:56.178Z,38.1
2023-03-01T10:51:37.530Z,37.4
2023-03-01T10:56:56.100Z,36.2
2023-03-01T11:01:56.144Z,34.9
2023-03-01T11:06:56.068Z,35.4
2023-03-01T11:11:56.060Z,37.5
2023-03-01T11:17:48.021Z,38.3
2023-03-01T11:22:37.626Z,36.7
2023-03-01T11:27:39.735Z,36.8
2023-03-01T11:32:56.267Z,37
2023-03-01T11:38:37.528Z,36.3
2023-03-01T11:43:37.536Z,37.8
2023-03-01T11:48:56.118Z,36.9
2023-03-01T11:54:37.536Z,36
2023-03-01T11:59:37.548Z,35.4
2023-03-01T12:04:56.072Z,35.6
2023-03-01T12:10:37.550Z,36.9
2023-03-01T12:15:56.140Z,36.1
2023-03-01T12:21:37.520Z,37.5
2023-03-01T12:26:37.577Z,36.7
2023-03-01T12:31:56.262Z,37
2023-03-01T12:37:37.496Z,36.3
2023-03-01T12:42:37.538Z,37
2023-03-01T12:47:56.209Z,35.1
2023-03-01T12:52:56.121Z,37.4
2023-03-01T12:57:56.056Z,37.5
2023-03-01T13:02:56.114Z,37
2023-03-01T13:08:37.540Z,35.4
2023-03-01T13:13:56.075Z,36.2
2023-03-01T13:20:37.572Z,35.5
2023-03-01T13:25:46.618Z,35.9
2023-03-01T13:30:56.061Z,34.9
2023-03-01T13:36:37.531Z,34.8
2023-03-01T13:41:37.584Z,35.7
2023-03-01T13:46:56.190Z,36.8
2023-03-01T13:52:37.553Z,35.8
2023-03-01T13:57:56.074Z,35.5
2023-03-01T14:03:37.594Z,35.5
2023-03-01T14:08:56.073Z,35.8
2023-03-01T14:13:56.105Z,35.4
2023-03-01T14:19:37.537Z,36.1
2023-03-01T14:24:37.540Z,36.7
2023-03-01T14:29:56.116Z,37.1
2023-03-01T14:34:56.113Z,36.1
2023-03-01T14:40:37.533Z,36.2
2023-03-01T14:45:37.613Z,36.6
2023-03-01T14:50:37.570Z,37.4
2023-03-01T14:55:56.073Z,36.9
2023-03-01T15:01:37.647Z,36.7
2023-03-01T15:06:56.095Z,38
2023-03-01T15:12:37.522Z,36.8
2023-03-01T15:17:37.570Z,36.2
2023-03-01T15:22:37.548Z,36
2023-03-01T15:27:56.064Z,36.4
2023-03-01T15:32:56.106Z,36.7
2023-03-01T15:37:56.121Z,36.8
2023-03-01T15:43:37.540Z,38.9
2023-03-01T15:48:56.092Z,37.8
2023-03-01T15:54:37.449Z,38.7
2023-03-01T15:59:37.533Z,36.9
2023-03-01T16:04:56.109Z,38.8
2023-03-01T16:10:37.542Z,38.5
2023-03-01T16:15:56.146Z,39.8
2023-03-01T16:21:37.714Z,39.8
2023-03-01T16:26:56.143Z,40.4
2023-03-01T16:32:37.553Z,40.7
2023-03-01T16:37:56.063Z,41
2023-03-01T16:42:56.089Z,42.5
2023-03-01T16:48:37.543Z,41.6
2023-03-01T16:53:37.634Z,41.5
2023-03-01T16:58:56.058Z,42.6
2023-03-01T17:03:56.051Z,41.2
2023-03-01T17:08:56.122Z,41
2023-03-01T17:14:37.527Z,40.2
2023-03-01T17:19:56.059Z,40.2
2023-03-01T17:24:56.092Z,39.9
2023-03-01T17:30:37.541Z,40.7
2023-03-01T17:35:56.133Z,41.5
2023-03-01T17:41:37.580Z,40.9
2023-03-01T17:46:56.062Z,43.8
2023-03-01T17:51:56.065Z,44.8
2023-03-01T17:56:56.162Z,44
2023-03-01T18:02:37.612Z,44.9
2023-03-01T18:07:56.085Z,48.6
2023-03-01T18:13:37.561Z,49.3
2023-03-01T18:18:37.550Z,46.2
2023-03-01T18:23:56.060Z,51.1
2023-03-01T18:29:37.573Z,51.1
2023-03-01T18:34:37.612Z,49.4
2023-03-01T18:39:56.079Z,50.1
2023-03-01T18:44:56.130Z,51
2023-03-01T18:50:37.589Z,53.6
2023-03-01T18:55:58.120Z,52.4
2023-03-01T19:00:56.106Z,55.1
2023-03-01T19:06:37.532Z,55.8
2023-03-01T19:11:56.089Z,54.9
2023-03-01T19:17:37.560Z,55.2
2023-03-01T19:22:56.036Z,58.4
2023-03-01T19:27:56.066Z,58.8
2023-03-01T19:33:37.572Z,58.1
2023-03-01T19:38:56.033Z,58.2
2023-03-01T19:44:37.567Z,58.3
2023-03-01T19:49:56.096Z,59.9
2023-03-01T19:55:37.499Z,61.6
2023-03-01T20:00:37.512Z,59.8
2023-03-01T20:05:56.035Z,61.7
2023-03-01T20:10:56.140Z,61.2
2023-03-01T20:16:37.553Z,63.5
2023-03-01T20:21:37.535Z,62.4
2023-03-01T20:26:37.524Z,64.2
2023-03-01T20:31:56.320Z,66.4
2023-03-01T20:36:56.129Z,64.5
2023-03-01T20:42:37.484Z,63.6
2023-03-01T20:47:37.507Z,66.3
2023-03-01T20:52:56.071Z,67.8
2023-03-01T20:58:37.492Z,64.9
2023-03-01T21:03:56.147Z,61.6
2023-03-01T21:08:56.093Z,63.4
2023-03-01T21:13:56.042Z,65.8
2023-03-01T21:19:37.533Z,65.5
2023-03-01T21:24:56.064Z,65.3
2023-03-01T21:29:56.044Z,69.3
2023-03-01T21:35:37.537Z,70
2023-03-01T21:40:37.642Z,71.8
2023-03-01T21:45:56.090Z,70.4
2023-03-01T21:50:56.027Z,68.7
2023-03-01T21:56:37.628Z,70.1
2023-03-01T22:01:56.009Z,73.1
2023-03-01T22:06:56.013Z,73.3
2023-03-01T22:12:56.065Z,72.2
2023-03-01T22:17:56.041Z,72.4
2023-03-01T22:23:37.507Z,74.9
2023-03-01T22:28:56.143Z,72
2023-03-01T22:34:37.572Z,72
2023-03-01T22:39:56.074Z,71.7
2023-03-01T22:45:37.516Z,73.1
2023-03-01T22:50:37.509Z,75.5
2023-03-01T22:55:56.022Z,74.9
2023-03-01T23:01:37.472Z,75.9
2023-03-01T23:06:37.474Z,76.1
2023-03-01T23:11:37.521Z,79.4
2023-03-01T23:16:56.130Z,80.7
2023-03-01T23:22:37.449Z,80.5
2023-03-01T23:27:37.473Z,79
2023-03-01T23:32:56.038Z,81.6
2023-03-01T23:37:56.028Z,82.3
2023-03-01T23:43:37.488Z,84.3
2023-03-01T23:48:37.604Z,83.5
2023-03-01T23:53:56.050Z,86.5
2023-03-01T23:59:37.490Z,88.3
